sensor_id;sensor_type;location;lat;lon;timestamp;temperature;humidity
64062;DHT22;50308;47.438;-1.528;2022-07-23T00:02:24;24.00;50.10
64062;DHT22;50308;47.438;-1.528;2022-07-23T00:04:49;24.00;50.10
64062;DHT22;50308;47.438;-1.528;2022-07-23T00:07:15;24.00;50.00
64062;DHT22;50308;47.438;-1.528;2022-07-23T00:09:40;23.90;50.00
64062;DHT22;50308;47.438;-1.528;2022-07-23T00:12:06;23.90;50.00
64062;DHT22;50308;47.438;-1.528;2022-07-23T00:14:32;23.90;50.00
64062;DHT22;50308;47.438;-1.528;2022-07-23T00:16:57;23.90;50.00
64062;DHT22;50308;47.438;-1.528;2022-07-23T00:19:23;23.90;50.00
64062;DHT22;50308;47.438;-1.528;2022-07-23T00:21:48;23.90;50.00
64062;DHT22;50308;47.438;-1.528;2022-07-23T00:24:14;23.90;50.00
64062;DHT22;50308;47.438;-1.528;2022-07-23T00:26:40;23.80;50.00
64062;DHT22;50308;47.438;-1.528;2022-07-23T00:29:05;23.80;50.00
64062;DHT22;50308;47.438;-1.528;2022-07-23T00:31:31;23.80;50.00
64062;DHT22;50308;47.438;-1.528;2022-07-23T00:33:56;23.80;50.00
64062;DHT22;50308;47.438;-1.528;2022-07-23T00:36:22;23.80;50.00
64062;DHT22;50308;47.438;-1.528;2022-07-23T00:38:49;23.80;50.00
64062;DHT22;50308;47.438;-1.528;2022-07-23T00:41:14;23.70;50.00
64062;DHT22;50308;47.438;-1.528;2022-07-23T00:43:40;23.70;49.90
64062;DHT22;50308;47.438;-1.528;2022-07-23T00:46:06;23.70;50.00
64062;DHT22;50308;47.438;-1.528;2022-07-23T00:48:31;23.70;50.00
64062;DHT22;50308;47.438;-1.528;2022-07-23T00:50:57;23.70;50.00
64062;DHT22;50308;47.438;-1.528;2022-07-23T00:53:22;23.70;50.00
64062;DHT22;50308;47.438;-1.528;2022-07-23T00:55:48;23.60;50.00
64062;DHT22;50308;47.438;-1.528;2022-07-23T00:58:14;23.60;50.00
64062;DHT22;50308;47.438;-1.528;2022-07-23T01:00:41;23.60;50.00
64062;DHT22;50308;47.438;-1.528;2022-07-23T01:03:06;23.60;50.00
64062;DHT22;50308;47.438;-1.528;2022-07-23T01:05:32;23.60;50.00
64062;DHT22;50308;47.438;-1.528;2022-07-23T01:07:58;23.60;50.00
64062;DHT22;50308;47.438;-1.528;2022-07-23T01:10:24;23.60;50.00
64062;DHT22;50308;47.438;-1.528;2022-07-23T01:15:24;23.50;50.00
64062;DHT22;50308;47.438;-1.528;2022-07-23T01:17:50;23.50;50.00
64062;DHT22;50308;47.438;-1.528;2022-07-23T01:20:16;23.50;50.00
64062;DHT22;50308;47.438;-1.528;2022-07-23T01:22:42;23.50;50.00
64062;DHT22;50308;47.438;-1.528;2022-07-23T01:25:07;23.40;49.90
64062;DHT22;50308;47.438;-1.528;2022-07-23T01:27:34;23.40;50.00
64062;DHT22;50308;47.438;-1.528;2022-07-23T01:30:00;23.40;50.00
64062;DHT22;50308;47.438;-1.528;2022-07-23T01:32:25;23.40;50.00
64062;DHT22;50308;47.438;-1.528;2022-07-23T01:34:51;23.40;50.00
64062;DHT22;50308;47.438;-1.528;2022-07-23T01:37:16;23.40;50.00
64062;DHT22;50308;47.438;-1.528;2022-07-23T01:39:42;23.40;50.00
64062;DHT22;50308;47.438;-1.528;2022-07-23T01:42:08;23.40;50.00
64062;DHT22;50308;47.438;-1.528;2022-07-23T01:44:33;23.30;50.00
64062;DHT22;50308;47.438;-1.528;2022-07-23T01:46:59;23.30;50.00
64062;DHT22;50308;47.438;-1.528;2022-07-23T01:49:24;23.30;50.00
64062;DHT22;50308;47.438;-1.528;2022-07-23T01:51:50;23.30;50.00
64062;DHT22;50308;47.438;-1.528;2022-07-23T01:54:31;23.30;50.00
64062;DHT22;50308;47.438;-1.528;2022-07-23T01:56:58;23.30;50.00
64062;DHT22;50308;47.438;-1.528;2022-07-23T01:59:23;23.30;50.00
64062;DHT22;50308;47.438;-1.528;2022-07-23T02:01:49;23.30;50.00
64062;DHT22;50308;47.438;-1.528;2022-07-23T02:04:18;23.20;50.00
64062;DHT22;50308;47.438;-1.528;2022-07-23T02:06:44;23.30;51.10
64062;DHT22;50308;47.438;-1.528;2022-07-23T02:09:09;23.20;50.00
64062;DHT22;50308;47.438;-1.528;2022-07-23T02:11:35;23.20;50.00
64062;DHT22;50308;47.438;-1.528;2022-07-23T02:14:00;23.20;50.00
64062;DHT22;50308;47.438;-1.528;2022-07-23T02:16:26;23.20;50.00
64062;DHT22;50308;47.438;-1.528;2022-07-23T02:18:51;23.20;50.00
64062;DHT22;50308;47.438;-1.528;2022-07-23T02:21:17;23.20;50.00
64062;DHT22;50308;47.438;-1.528;2022-07-23T02:23:42;23.20;50.20
64062;DHT22;50308;47.438;-1.528;2022-07-23T02:26:08;23.10;50.10
64062;DHT22;50308;47.438;-1.528;2022-07-23T02:28:33;23.10;50.00
64062;DHT22;50308;47.438;-1.528;2022-07-23T02:30:59;23.10;50.00
64062;DHT22;50308;47.438;-1.528;2022-07-23T02:33:25;23.10;50.10
64062;DHT22;50308;47.438;-1.528;2022-07-23T02:35:50;23.00;50.10
64062;DHT22;50308;47.438;-1.528;2022-07-23T02:38:16;23.10;50.10
64062;DHT22;50308;47.438;-1.528;2022-07-23T02:40:41;23.10;50.10
64062;DHT22;50308;47.438;-1.528;2022-07-23T02:43:07;23.00;50.00
64062;DHT22;50308;47.438;-1.528;2022-07-23T02:45:32;23.00;50.10
64062;DHT22;50308;47.438;-1.528;2022-07-23T02:47:58;23.00;50.10
64062;DHT22;50308;47.438;-1.528;2022-07-23T02:50:23;23.00;50.10
64062;DHT22;50308;47.438;-1.528;2022-07-23T02:52:49;23.00;50.10
64062;DHT22;50308;47.438;-1.528;2022-07-23T02:55:15;23.00;50.20
64062;DHT22;50308;47.438;-1.528;2022-07-23T02:57:40;23.00;50.20
64062;DHT22;50308;47.438;-1.528;2022-07-23T03:00:06;23.00;50.20
64062;DHT22;50308;47.438;-1.528;2022-07-23T03:02:32;23.00;50.20
64062;DHT22;50308;47.438;-1.528;2022-07-23T03:04:57;23.00;50.20
64062;DHT22;50308;47.438;-1.528;2022-07-23T03:07:23;23.00;50.20
64062;DHT22;50308;47.438;-1.528;2022-07-23T03:09:49;23.00;50.20
64062;DHT22;50308;47.438;-1.528;2022-07-23T03:12:14;23.00;50.20
64062;DHT22;50308;47.438;-1.528;2022-07-23T03:14:40;23.00;50.20
64062;DHT22;50308;47.438;-1.528;2022-07-23T03:17:06;23.00;50.30
64062;DHT22;50308;47.438;-1.528;2022-07-23T03:19:31;23.00;50.40
64062;DHT22;50308;47.438;-1.528;2022-07-23T03:21:57;23.00;50.40
64062;DHT22;50308;47.438;-1.528;2022-07-23T03:24:23;23.00;50.50
64062;DHT22;50308;47.438;-1.528;2022-07-23T03:27:08;23.00;50.40
64062;DHT22;50308;47.438;-1.528;2022-07-23T03:29:34;23.00;50.50
64062;DHT22;50308;47.438;-1.528;2022-07-23T03:31:59;23.00;50.50
64062;DHT22;50308;47.438;-1.528;2022-07-23T03:34:25;22.90;50.50
64062;DHT22;50308;47.438;-1.528;2022-07-23T03:36:50;23.00;50.60
64062;DHT22;50308;47.438;-1.528;2022-07-23T03:39:16;23.00;50.50
64062;DHT22;50308;47.438;-1.528;2022-07-23T03:41:41;22.90;50.60
64062;DHT22;50308;47.438;-1.528;2022-07-23T03:44:07;23.00;50.70
64062;DHT22;50308;47.438;-1.528;2022-07-23T03:46:32;23.00;50.70
64062;DHT22;50308;47.438;-1.528;2022-07-23T03:48:58;22.90;50.60
64062;DHT22;50308;47.438;-1.528;2022-07-23T03:51:23;22.90;50.70
64062;DHT22;50308;47.438;-1.528;2022-07-23T03:53:49;22.90;50.70
64062;DHT22;50308;47.438;-1.528;2022-07-23T03:56:14;22.90;50.70
64062;DHT22;50308;47.438;-1.528;2022-07-23T03:58:40;22.90;50.70
64062;DHT22;50308;47.438;-1.528;2022-07-23T04:01:05;22.90;50.80
64062;DHT22;50308;47.438;-1.528;2022-07-23T04:03:31;22.90;50.80
64062;DHT22;50308;47.438;-1.528;2022-07-23T04:05:57;22.90;50.80
64062;DHT22;50308;47.438;-1.528;2022-07-23T04:08:22;22.90;50.90
64062;DHT22;50308;47.438;-1.528;2022-07-23T04:10:48;22.90;50.80
64062;DHT22;50308;47.438;-1.528;2022-07-23T04:13:13;22.90;50.80
64062;DHT22;50308;47.438;-1.528;2022-07-23T04:15:39;22.90;50.90
64062;DHT22;50308;47.438;-1.528;2022-07-23T04:18:05;22.90;50.90
64062;DHT22;50308;47.438;-1.528;2022-07-23T04:20:30;22.90;50.90
64062;DHT22;50308;47.438;-1.528;2022-07-23T04:22:56;22.90;50.90
64062;DHT22;50308;47.438;-1.528;2022-07-23T04:25:21;22.80;50.80
64062;DHT22;50308;47.438;-1.528;2022-07-23T04:27:47;22.80;50.80
64062;DHT22;50308;47.438;-1.528;2022-07-23T04:30:12;22.80;51.00
64062;DHT22;50308;47.438;-1.528;2022-07-23T04:32:38;22.80;51.00
64062;DHT22;50308;47.438;-1.528;2022-07-23T04:35:04;22.80;50.90
64062;DHT22;50308;47.438;-1.528;2022-07-23T04:37:29;22.80;51.00
64062;DHT22;50308;47.438;-1.528;2022-07-23T04:39:55;22.80;50.90
64062;DHT22;50308;47.438;-1.528;2022-07-23T04:42:20;22.80;50.80
64062;DHT22;50308;47.438;-1.528;2022-07-23T04:44:46;22.80;50.80
64062;DHT22;50308;47.438;-1.528;2022-07-23T04:47:11;22.80;50.90
64062;DHT22;50308;47.438;-1.528;2022-07-23T04:49:37;22.70;50.80
64062;DHT22;50308;47.438;-1.528;2022-07-23T04:52:03;22.70;50.90
64062;DHT22;50308;47.438;-1.528;2022-07-23T04:54:28;22.70;51.00
64062;DHT22;50308;47.438;-1.528;2022-07-23T04:56:54;22.70;51.00
64062;DHT22;50308;47.438;-1.528;2022-07-23T04:59:19;22.70;50.90
64062;DHT22;50308;47.438;-1.528;2022-07-23T05:01:45;22.70;50.90
64062;DHT22;50308;47.438;-1.528;2022-07-23T05:04:10;22.70;50.80
64062;DHT22;50308;47.438;-1.528;2022-07-23T05:06:36;22.70;50.80
64062;DHT22;50308;47.438;-1.528;2022-07-23T05:09:01;22.70;50.80
64062;DHT22;50308;47.438;-1.528;2022-07-23T05:11:27;22.70;50.90
64062;DHT22;50308;47.438;-1.528;2022-07-23T05:13:53;22.70;51.00
64062;DHT22;50308;47.438;-1.528;2022-07-23T05:16:18;22.70;51.00
64062;DHT22;50308;47.438;-1.528;2022-07-23T05:18:44;22.70;51.00
64062;DHT22;50308;47.438;-1.528;2022-07-23T05:21:09;22.70;51.00
64062;DHT22;50308;47.438;-1.528;2022-07-23T05:23:35;22.70;51.00
64062;DHT22;50308;47.438;-1.528;2022-07-23T05:26:00;22.70;51.10
64062;DHT22;50308;47.438;-1.528;2022-07-23T05:28:26;22.70;51.10
64062;DHT22;50308;47.438;-1.528;2022-07-23T05:30:52;22.70;51.10
64062;DHT22;50308;47.438;-1.528;2022-07-23T05:33:18;22.70;51.10
64062;DHT22;50308;47.438;-1.528;2022-07-23T05:35:44;22.70;51.10
64062;DHT22;50308;47.438;-1.528;2022-07-23T05:38:10;22.70;52.20
64062;DHT22;50308;47.438;-1.528;2022-07-23T05:40:35;22.70;51.10
64062;DHT22;50308;47.438;-1.528;2022-07-23T05:43:01;22.70;51.10
64062;DHT22;50308;47.438;-1.528;2022-07-23T05:45:26;22.70;51.20
64062;DHT22;50308;47.438;-1.528;2022-07-23T05:47:52;22.70;51.20
64062;DHT22;50308;47.438;-1.528;2022-07-23T05:50:17;22.70;51.10
64062;DHT22;50308;47.438;-1.528;2022-07-23T05:52:43;22.70;51.10
64062;DHT22;50308;47.438;-1.528;2022-07-23T05:55:09;22.70;51.10
64062;DHT22;50308;47.438;-1.528;2022-07-23T05:57:35;22.70;51.20
64062;DHT22;50308;47.438;-1.528;2022-07-23T06:00:01;22.70;51.20
64062;DHT22;50308;47.438;-1.528;2022-07-23T06:02:27;22.70;51.20
64062;DHT22;50308;47.438;-1.528;2022-07-23T06:04:53;22.70;51.30
64062;DHT22;50308;47.438;-1.528;2022-07-23T06:07:18;22.70;51.20
64062;DHT22;50308;47.438;-1.528;2022-07-23T06:09:44;22.70;51.30
64062;DHT22;50308;47.438;-1.528;2022-07-23T06:12:09;22.70;51.30
64062;DHT22;50308;47.438;-1.528;2022-07-23T06:14:35;22.70;51.30
64062;DHT22;50308;47.438;-1.528;2022-07-23T06:17:00;22.70;51.40
64062;DHT22;50308;47.438;-1.528;2022-07-23T06:19:26;22.70;51.30
64062;DHT22;50308;47.438;-1.528;2022-07-23T06:21:51;22.80;51.40
64062;DHT22;50308;47.438;-1.528;2022-07-23T06:24:17;22.70;51.40
64062;DHT22;50308;47.438;-1.528;2022-07-23T06:26:43;22.70;51.40
64062;DHT22;50308;47.438;-1.528;2022-07-23T06:29:08;22.70;51.50
64062;DHT22;50308;47.438;-1.528;2022-07-23T06:31:34;22.70;51.50
64062;DHT22;50308;47.438;-1.528;2022-07-23T06:34:00;22.70;51.60
64062;DHT22;50308;47.438;-1.528;2022-07-23T06:36:25;22.70;51.60
64062;DHT22;50308;47.438;-1.528;2022-07-23T06:38:51;22.80;51.60
64062;DHT22;50308;47.438;-1.528;2022-07-23T06:41:16;22.70;51.60
64062;DHT22;50308;47.438;-1.528;2022-07-23T06:43:42;22.70;51.60
64062;DHT22;50308;47.438;-1.528;2022-07-23T06:46:08;22.70;51.70
64062;DHT22;50308;47.438;-1.528;2022-07-23T06:48:33;22.80;51.80
64062;DHT22;50308;47.438;-1.528;2022-07-23T06:51:01;22.80;51.80
64062;DHT22;50308;47.438;-1.528;2022-07-23T06:53:27;22.80;51.80
64062;DHT22;50308;47.438;-1.528;2022-07-23T06:55:52;22.80;51.90
64062;DHT22;50308;47.438;-1.528;2022-07-23T06:58:18;22.80;51.90
64062;DHT22;50308;47.438;-1.528;2022-07-23T07:00:44;22.80;52.00
64062;DHT22;50308;47.438;-1.528;2022-07-23T07:03:10;22.80;52.00
64062;DHT22;50308;47.438;-1.528;2022-07-23T07:05:35;22.80;52.10
64062;DHT22;50308;47.438;-1.528;2022-07-23T07:08:01;22.80;52.10
64062;DHT22;50308;47.438;-1.528;2022-07-23T07:10:26;22.80;52.10
64062;DHT22;50308;47.438;-1.528;2022-07-23T07:12:52;22.90;52.20
64062;DHT22;50308;47.438;-1.528;2022-07-23T07:15:18;22.90;52.20
64062;DHT22;50308;47.438;-1.528;2022-07-23T07:17:43;22.90;52.20
64062;DHT22;50308;47.438;-1.528;2022-07-23T07:20:09;22.90;52.30
64062;DHT22;50308;47.438;-1.528;2022-07-23T07:22:35;22.90;52.30
64062;DHT22;50308;47.438;-1.528;2022-07-23T07:25:00;22.90;52.40
64062;DHT22;50308;47.438;-1.528;2022-07-23T07:27:26;22.90;52.50
64062;DHT22;50308;47.438;-1.528;2022-07-23T07:29:51;22.90;52.60
64062;DHT22;50308;47.438;-1.528;2022-07-23T07:32:17;23.00;52.60
64062;DHT22;50308;47.438;-1.528;2022-07-23T07:34:43;23.00;52.70
64062;DHT22;50308;47.438;-1.528;2022-07-23T07:37:08;23.00;52.80
64062;DHT22;50308;47.438;-1.528;2022-07-23T07:39:34;23.00;52.80
64062;DHT22;50308;47.438;-1.528;2022-07-23T07:41:59;23.00;52.90
64062;DHT22;50308;47.438;-1.528;2022-07-23T07:44:25;23.00;52.90
64062;DHT22;50308;47.438;-1.528;2022-07-23T07:46:50;23.10;53.00
64062;DHT22;50308;47.438;-1.528;2022-07-23T07:49:16;23.00;53.00
64062;DHT22;50308;47.438;-1.528;2022-07-23T07:51:44;23.00;53.00
64062;DHT22;50308;47.438;-1.528;2022-07-23T07:54:10;23.10;53.20
64062;DHT22;50308;47.438;-1.528;2022-07-23T07:56:36;23.10;53.30
64062;DHT22;50308;47.438;-1.528;2022-07-23T07:59:01;23.10;53.30
64062;DHT22;50308;47.438;-1.528;2022-07-23T08:01:27;23.20;53.40
64062;DHT22;50308;47.438;-1.528;2022-07-23T08:03:53;23.10;53.30
64062;DHT22;50308;47.438;-1.528;2022-07-23T08:06:18;23.20;53.40
64062;DHT22;50308;47.438;-1.528;2022-07-23T08:08:44;23.20;53.40
64062;DHT22;50308;47.438;-1.528;2022-07-23T08:11:09;23.20;53.40
64062;DHT22;50308;47.438;-1.528;2022-07-23T08:13:35;23.20;53.40
64062;DHT22;50308;47.438;-1.528;2022-07-23T08:16:01;23.20;53.40
64062;DHT22;50308;47.438;-1.528;2022-07-23T08:18:26;23.20;53.20
64062;DHT22;50308;47.438;-1.528;2022-07-23T08:20:52;23.20;53.30
64062;DHT22;50308;47.438;-1.528;2022-07-23T08:23:17;23.20;53.30
64062;DHT22;50308;47.438;-1.528;2022-07-23T08:25:45;23.20;53.40
64062;DHT22;50308;47.438;-1.528;2022-07-23T08:28:11;23.30;54.40
64062;DHT22;50308;47.438;-1.528;2022-07-23T08:30:37;23.30;53.20
64062;DHT22;50308;47.438;-1.528;2022-07-23T08:33:05;23.30;53.20
64062;DHT22;50308;47.438;-1.528;2022-07-23T08:35:32;23.30;53.00
64062;DHT22;50308;47.438;-1.528;2022-07-23T08:37:58;23.30;53.00
64062;DHT22;50308;47.438;-1.528;2022-07-23T08:40:28;23.30;52.90
64062;DHT22;50308;47.438;-1.528;2022-07-23T08:42:54;23.30;52.80
64062;DHT22;50308;47.438;-1.528;2022-07-23T08:45:20;23.30;52.80
64062;DHT22;50308;47.438;-1.528;2022-07-23T08:47:56;23.30;52.80
64062;DHT22;50308;47.438;-1.528;2022-07-23T08:50:22;23.30;52.70
64062;DHT22;50308;47.438;-1.528;2022-07-23T08:52:48;23.40;52.60
64062;DHT22;50308;47.438;-1.528;2022-07-23T08:55:14;23.40;52.60
64062;DHT22;50308;47.438;-1.528;2022-07-23T08:57:41;23.40;52.60
64062;DHT22;50308;47.438;-1.528;2022-07-23T09:00:06;23.40;52.60
64062;DHT22;50308;47.438;-1.528;2022-07-23T09:02:38;23.40;52.50
64062;DHT22;50308;47.438;-1.528;2022-07-23T09:05:04;23.40;52.30
64062;DHT22;50308;47.438;-1.528;2022-07-23T09:07:29;23.40;52.20
64062;DHT22;50308;47.438;-1.528;2022-07-23T09:10:08;23.40;52.10
64062;DHT22;50308;47.438;-1.528;2022-07-23T09:12:33;23.40;51.90
64062;DHT22;50308;47.438;-1.528;2022-07-23T09:15:06;23.40;51.90
64062;DHT22;50308;47.438;-1.528;2022-07-23T09:17:40;23.40;51.80
64062;DHT22;50308;47.438;-1.528;2022-07-23T09:20:09;23.50;51.70
64062;DHT22;50308;47.438;-1.528;2022-07-23T09:22:35;23.50;51.70
64062;DHT22;50308;47.438;-1.528;2022-07-23T09:25:11;23.50;51.70
64062;DHT22;50308;47.438;-1.528;2022-07-23T09:27:49;23.50;51.70
64062;DHT22;50308;47.438;-1.528;2022-07-23T09:30:15;23.60;51.70
64062;DHT22;50308;47.438;-1.528;2022-07-23T09:32:41;23.60;51.60
64062;DHT22;50308;47.438;-1.528;2022-07-23T09:35:07;23.60;51.60
64062;DHT22;50308;47.438;-1.528;2022-07-23T09:37:33;23.60;51.40
64062;DHT22;50308;47.438;-1.528;2022-07-23T09:40:05;23.60;51.10
64062;DHT22;50308;47.438;-1.528;2022-07-23T09:42:31;23.60;51.00
64062;DHT22;50308;47.438;-1.528;2022-07-23T09:44:58;23.60;50.80
64062;DHT22;50308;47.438;-1.528;2022-07-23T09:47:24;23.60;50.80
64062;DHT22;50308;47.438;-1.528;2022-07-23T09:50:03;23.60;50.70
64062;DHT22;50308;47.438;-1.528;2022-07-23T09:52:34;23.70;50.70
64062;DHT22;50308;47.438;-1.528;2022-07-23T09:55:01;23.60;50.50
64062;DHT22;50308;47.438;-1.528;2022-07-23T09:57:27;23.70;50.50
64062;DHT22;50308;47.438;-1.528;2022-07-23T09:59:52;23.70;50.50
64062;DHT22;50308;47.438;-1.528;2022-07-23T10:02:22;23.70;50.40
64062;DHT22;50308;47.438;-1.528;2022-07-23T10:04:48;23.70;51.40
64062;DHT22;50308;47.438;-1.528;2022-07-23T10:07:14;23.70;50.30
64062;DHT22;50308;47.438;-1.528;2022-07-23T10:09:42;23.70;51.30
64062;DHT22;50308;47.438;-1.528;2022-07-23T10:12:13;23.80;50.30
64062;DHT22;50308;47.438;-1.528;2022-07-23T10:14:46;23.80;50.20
64062;DHT22;50308;47.438;-1.528;2022-07-23T10:17:12;23.70;49.90
64062;DHT22;50308;47.438;-1.528;2022-07-23T10:19:38;23.80;50.90
64062;DHT22;50308;47.438;-1.528;2022-07-23T10:29:57;23.80;49.80
64062;DHT22;50308;47.438;-1.528;2022-07-23T10:35:29;23.80;49.70
64062;DHT22;50308;47.438;-1.528;2022-07-23T10:38:00;23.80;49.40
64062;DHT22;50308;47.438;-1.528;2022-07-23T10:40:26;23.80;49.30
64062;DHT22;50308;47.438;-1.528;2022-07-23T10:42:54;23.80;49.20
64062;DHT22;50308;47.438;-1.528;2022-07-23T10:47:52;23.80;49.10
64062;DHT22;50308;47.438;-1.528;2022-07-23T10:57:54;23.90;50.00
64062;DHT22;50308;47.438;-1.528;2022-07-23T11:00:20;23.90;49.00
64062;DHT22;50308;47.438;-1.528;2022-07-23T11:02:47;23.90;49.10
64062;DHT22;50308;47.438;-1.528;2022-07-23T11:05:14;23.90;48.90
64062;DHT22;50308;47.438;-1.528;2022-07-23T11:16:26;24.00;49.00
64062;DHT22;50308;47.438;-1.528;2022-07-23T11:24:05;24.00;48.80
64062;DHT22;50308;47.438;-1.528;2022-07-23T11:29:48;24.00;48.60
64062;DHT22;50308;47.438;-1.528;2022-07-23T11:37:03;24.10;48.40
64062;DHT22;50308;47.438;-1.528;2022-07-23T11:39:29;24.00;48.30
64062;DHT22;50308;47.438;-1.528;2022-07-23T11:41:55;24.10;48.30
64062;DHT22;50308;47.438;-1.528;2022-07-23T11:44:27;24.00;48.20
64062;DHT22;50308;47.438;-1.528;2022-07-23T11:47:00;24.10;48.30
64062;DHT22;50308;47.438;-1.528;2022-07-23T11:49:26;24.10;48.10
64062;DHT22;50308;47.438;-1.528;2022-07-23T11:54:52;24.10;48.00
64062;DHT22;50308;47.438;-1.528;2022-07-23T11:57:18;24.10;47.80
64062;DHT22;50308;47.438;-1.528;2022-07-23T11:59:46;24.10;47.70
64062;DHT22;50308;47.438;-1.528;2022-07-23T12:02:11;24.10;47.60
64062;DHT22;50308;47.438;-1.528;2022-07-23T12:07:03;24.20;47.60
64062;DHT22;50308;47.438;-1.528;2022-07-23T12:09:28;24.20;47.50
64062;DHT22;50308;47.438;-1.528;2022-07-23T12:11:58;24.20;47.60
64062;DHT22;50308;47.438;-1.528;2022-07-23T12:14:24;24.20;47.50
64062;DHT22;50308;47.438;-1.528;2022-07-23T12:19:33;24.20;47.40
64062;DHT22;50308;47.438;-1.528;2022-07-23T12:21:59;24.20;47.20
64062;DHT22;50308;47.438;-1.528;2022-07-23T12:24:25;24.30;48.20
64062;DHT22;50308;47.438;-1.528;2022-07-23T12:27:09;24.30;47.00
64062;DHT22;50308;47.438;-1.528;2022-07-23T12:29:36;24.30;46.90
64062;DHT22;50308;47.438;-1.528;2022-07-23T12:32:01;24.30;46.80
64062;DHT22;50308;47.438;-1.528;2022-07-23T12:34:27;24.30;46.80
64062;DHT22;50308;47.438;-1.528;2022-07-23T12:36:52;24.30;46.80
64062;DHT22;50308;47.438;-1.528;2022-07-23T12:39:31;24.40;46.90
64062;DHT22;50308;47.438;-1.528;2022-07-23T12:41:57;24.40;46.90
64062;DHT22;50308;47.438;-1.528;2022-07-23T12:44:22;24.40;47.00
64062;DHT22;50308;47.438;-1.528;2022-07-23T12:46:54;24.40;46.90
64062;DHT22;50308;47.438;-1.528;2022-07-23T12:49:26;24.40;47.00
64062;DHT22;50308;47.438;-1.528;2022-07-23T12:51:51;24.40;46.70
64062;DHT22;50308;47.438;-1.528;2022-07-23T12:54:17;24.40;46.60
64062;DHT22;50308;47.438;-1.528;2022-07-23T12:56:46;24.40;46.60
64062;DHT22;50308;47.438;-1.528;2022-07-23T12:59:13;24.40;46.60
64062;DHT22;50308;47.438;-1.528;2022-07-23T13:01:44;24.40;46.60
64062;DHT22;50308;47.438;-1.528;2022-07-23T13:04:15;24.50;46.60
64062;DHT22;50308;47.438;-1.528;2022-07-23T13:06:50;24.50;46.60
64062;DHT22;50308;47.438;-1.528;2022-07-23T13:09:26;24.50;46.60
64062;DHT22;50308;47.438;-1.528;2022-07-23T13:11:53;24.50;46.60
64062;DHT22;50308;47.438;-1.528;2022-07-23T13:14:19;24.50;46.80
64062;DHT22;50308;47.438;-1.528;2022-07-23T13:16:46;24.50;46.80
64062;DHT22;50308;47.438;-1.528;2022-07-23T13:19:12;24.60;46.90
64062;DHT22;50308;47.438;-1.528;2022-07-23T13:21:38;24.60;46.90
64062;DHT22;50308;47.438;-1.528;2022-07-23T13:24:04;24.60;46.80
64062;DHT22;50308;47.438;-1.528;2022-07-23T13:26:29;24.60;46.90
64062;DHT22;50308;47.438;-1.528;2022-07-23T13:28:55;24.60;46.80
64062;DHT22;50308;47.438;-1.528;2022-07-23T13:31:21;24.60;46.60
64062;DHT22;50308;47.438;-1.528;2022-07-23T13:33:46;24.70;46.60
64062;DHT22;50308;47.438;-1.528;2022-07-23T13:36:12;24.70;46.30
64062;DHT22;50308;47.438;-1.528;2022-07-23T13:38:37;24.70;46.20
64062;DHT22;50308;47.438;-1.528;2022-07-23T13:41:04;24.70;46.00
64062;DHT22;50308;47.438;-1.528;2022-07-23T13:43:30;24.80;46.00
64062;DHT22;50308;47.438;-1.528;2022-07-23T13:45:56;24.70;45.80
64062;DHT22;50308;47.438;-1.528;2022-07-23T13:48:21;24.70;46.10
64062;DHT22;50308;47.438;-1.528;2022-07-23T13:50:47;24.80;46.00
64062;DHT22;50308;47.438;-1.528;2022-07-23T13:53:14;24.80;45.90
64062;DHT22;50308;47.438;-1.528;2022-07-23T13:55:40;24.80;45.90
64062;DHT22;50308;47.438;-1.528;2022-07-23T13:58:06;24.80;46.90
64062;DHT22;50308;47.438;-1.528;2022-07-23T14:00:32;24.90;45.80
64062;DHT22;50308;47.438;-1.528;2022-07-23T14:02:58;24.90;45.80
64062;DHT22;50308;47.438;-1.528;2022-07-23T14:05:24;24.90;47.00
64062;DHT22;50308;47.438;-1.528;2022-07-23T14:07:50;24.90;45.90
64062;DHT22;50308;47.438;-1.528;2022-07-23T14:10:17;24.90;45.90
64062;DHT22;50308;47.438;-1.528;2022-07-23T14:12:43;24.90;45.90
64062;DHT22;50308;47.438;-1.528;2022-07-23T14:15:09;24.90;46.00
64062;DHT22;50308;47.438;-1.528;2022-07-23T14:17:36;25.00;45.90
64062;DHT22;50308;47.438;-1.528;2022-07-23T14:20:02;25.00;45.90
64062;DHT22;50308;47.438;-1.528;2022-07-23T14:22:28;25.00;46.10
64062;DHT22;50308;47.438;-1.528;2022-07-23T14:24:54;25.00;46.10
64062;DHT22;50308;47.438;-1.528;2022-07-23T14:27:22;25.00;46.10
64062;DHT22;50308;47.438;-1.528;2022-07-23T14:29:48;25.00;45.90
64062;DHT22;50308;47.438;-1.528;2022-07-23T14:32:14;25.00;45.80
64062;DHT22;50308;47.438;-1.528;2022-07-23T14:34:39;25.00;46.00
64062;DHT22;50308;47.438;-1.528;2022-07-23T14:37:05;25.10;46.00
64062;DHT22;50308;47.438;-1.528;2022-07-23T14:39:30;25.10;45.90
64062;DHT22;50308;47.438;-1.528;2022-07-23T14:41:56;25.10;45.80
64062;DHT22;50308;47.438;-1.528;2022-07-23T14:44:22;25.10;45.70
64062;DHT22;50308;47.438;-1.528;2022-07-23T14:46:47;25.20;45.60
64062;DHT22;50308;47.438;-1.528;2022-07-23T14:49:13;25.20;45.70
64062;DHT22;50308;47.438;-1.528;2022-07-23T14:51:38;25.10;45.60
64062;DHT22;50308;47.438;-1.528;2022-07-23T14:54:04;25.10;45.90
64062;DHT22;50308;47.438;-1.528;2022-07-23T14:56:30;25.10;46.30
64062;DHT22;50308;47.438;-1.528;2022-07-23T14:58:55;25.10;46.10
64062;DHT22;50308;47.438;-1.528;2022-07-23T15:01:21;25.10;46.40
64062;DHT22;50308;47.438;-1.528;2022-07-23T15:03:48;25.20;46.10
64062;DHT22;50308;47.438;-1.528;2022-07-23T15:06:13;25.20;46.20
64062;DHT22;50308;47.438;-1.528;2022-07-23T15:08:40;25.20;46.20
64062;DHT22;50308;47.438;-1.528;2022-07-23T15:11:06;25.20;46.40
64062;DHT22;50308;47.438;-1.528;2022-07-23T15:13:34;25.20;46.20
64062;DHT22;50308;47.438;-1.528;2022-07-23T15:16:00;25.30;46.00
64062;DHT22;50308;47.438;-1.528;2022-07-23T15:18:25;25.30;45.90
64062;DHT22;50308;47.438;-1.528;2022-07-23T15:20:51;25.30;45.90
64062;DHT22;50308;47.438;-1.528;2022-07-23T15:23:16;25.30;47.00
64062;DHT22;50308;47.438;-1.528;2022-07-23T15:25:42;25.30;46.50
64062;DHT22;50308;47.438;-1.528;2022-07-23T15:28:07;25.30;45.90
64062;DHT22;50308;47.438;-1.528;2022-07-23T15:30:33;25.40;46.50
64062;DHT22;50308;47.438;-1.528;2022-07-23T15:32:58;25.40;46.10
64062;DHT22;50308;47.438;-1.528;2022-07-23T15:35:24;25.30;46.20
64062;DHT22;50308;47.438;-1.528;2022-07-23T15:37:49;25.40;46.10
64062;DHT22;50308;47.438;-1.528;2022-07-23T15:40:15;25.40;46.10
64062;DHT22;50308;47.438;-1.528;2022-07-23T15:42:41;25.50;46.00
64062;DHT22;50308;47.438;-1.528;2022-07-23T15:45:06;25.50;45.80
64062;DHT22;50308;47.438;-1.528;2022-07-23T15:47:32;25.60;45.70
64062;DHT22;50308;47.438;-1.528;2022-07-23T15:49:57;25.60;45.70
64062;DHT22;50308;47.438;-1.528;2022-07-23T15:52:23;25.60;45.60
64062;DHT22;50308;47.438;-1.528;2022-07-23T15:54:49;25.60;45.80
64062;DHT22;50308;47.438;-1.528;2022-07-23T15:57:14;25.60;46.00
64062;DHT22;50308;47.438;-1.528;2022-07-23T15:59:40;25.60;45.80
64062;DHT22;50308;47.438;-1.528;2022-07-23T16:02:06;25.70;45.80
64062;DHT22;50308;47.438;-1.528;2022-07-23T16:04:31;25.70;45.70